Last 6 Hours

AM-Scott Top 8120'

15 Minute Data | America/Los_Angeles
as of 8/30/26 11:46 PM PDT
Date & Time Temp (°F) RH (%) Dew Pt (°F) Wet Bulb (°F) Wind Dir (°) Wind Spd (mph) Wind Gust (mph) WindChill (°F) Daily Min Temp (°F) Daily Max Temp (°F)
8/30/26 - 2345 55.9 53 38.9 46.5 NW | 311 3.6 5.4 55.9 48.6 67.2
8/30/26 - 2330 56.3 44 34.6 44.9 NW | 307 5.0 6.8 56.3 48.6 67.2
8/30/26 - 2315 56.5 38 31.2 43.6 NW | 315 4.5 7.0 56.5 48.6 67.2
8/30/26 - 2300 56.8 32 27.2 42.4 NNW | 330 5.1 9.4 56.8 48.6 67.2
8/30/26 - 2245 57.2 29 25.5 42.0 NNW | 329 4.9 7.0 57.2 48.6 67.2
8/30/26 - 2230 57.4 30 26.0 42.3 NNW | 344 4.8 8.2 57.4 48.6 67.2
8/30/26 - 2215 56.9 27 23.5 41.3 NNW | 346 4.2 7.9 56.9 48.6 67.2
8/30/26 - 2200 57.8 26 23.2 41.7 NNW | 343 5.9 10.6 57.8 48.6 67.2
8/30/26 - 2145 57.1 31 26.6 42.3 NNW | 345 5.2 8.0 57.1 48.6 67.2
8/30/26 - 2130 56.6 41 33.4 44.5 N | 349 4.6 7.8 56.6 48.6 67.2
8/30/26 - 2115 56.6 42 33.9 44.7 NNW | 342 5.9 10.9 56.6 48.6 67.2
8/30/26 - 2100 56.1 43 34.1 44.5 NNW | 345 5.4 9.2 56.1 48.6 67.2
8/30/26 - 2045 56.1 44 34.4 44.7 NNW | 344 5.5 7.5 56.1 48.6 67.2
8/30/26 - 2030 56.5 45 35.5 45.3 NNW | 342 5.5 8.1 56.5 48.6 67.2
8/30/26 - 2015 56.8 46 36.2 45.7 N | 352 5.0 7.7 56.8 48.6 67.2
8/30/26 - 2000 55.8 53 38.9 46.5 N | 6 6.3 8.9 55.8 48.6 67.2
8/30/26 - 1945 55.9 54 39.6 46.8 N | 5 6.1 8.2 55.9 48.6 67.2
8/30/26 - 1930 56.3 54 39.7 47.0 N | 2 5.4 7.8 56.3 48.6 67.2
8/30/26 - 1915 58.0 52 40.3 48.0 N | 358 4.9 8.5 58.0 48.6 67.2
8/30/26 - 1900 58.9 50 40.2 48.3 N | 358 6.7 10.3 58.9 48.6 67.2
8/30/26 - 1845 59.9 48 40.0 48.6 N | 1 6.7 10.2 59.9 48.6 67.2
8/30/26 - 1830 61.6 46 40.7 49.6 N | 1 6.5 12.1 61.6 48.6 67.2
8/30/26 - 1815 61.7 46 40.6 49.6 NNE | 13 8.6 14.4 61.7 48.6 67.2
8/30/26 - 1800 62.4 45 40.7 49.9 NNE | 15 8.5 13.9 62.4 48.6 67.2
Max 62.4 54 40.7 49.9 - 8.6 14.4 62.4 48.6 67.2
Avg 57.5 42 34.4 45.4 - 5.6 9.0 57.5 - -
Min 55.8 26 23.2 41.3 - 3.6 5.4 55.8 48.6 67.2